Time;durP1;ratioP1;P1;durP2;ratioP2;P2;SDS_P1;SDS_P2;PMS_P1;PMS_P2;Temp;Humidity;BMP_temperature;BMP_pressure;BME280_temperature;BME280_humidity;BME280_pressure;Samples;Min_cycle;Max_cycle;Signal;HPM_P1;HPM_P2
2021/11/19 00:01:11;;;;;;;27.80;18.73;;;11.50;99.90;;;;;;4890032;29;20242;-80
2021/11/19 00:03:40;;;;;;;30.10;18.63;;;11.50;99.90;;;;;;4894023;29;20265;-80
2021/11/19 00:06:08;;;;;;;25.20;18.33;;;11.50;99.90;;;;;;4893764;29;20258;-80
2021/11/19 00:08:38;;;;;;;28.97;18.37;;;11.50;99.90;;;;;;4893638;29;20243;-80
2021/11/19 00:11:10;;;;;;;27.43;17.80;;;11.50;99.90;;;;;;4894226;29;20242;-80
2021/11/19 00:13:40;;;;;;;28.87;18.33;;;11.50;99.90;;;;;;4893918;29;20594;-80
2021/11/19 00:16:09;;;;;;;30.77;18.60;;;11.50;99.90;;;;;;4894074;29;20255;-80
2021/11/19 00:18:38;;;;;;;29.30;19.03;;;11.50;99.90;;;;;;4893427;29;20242;-80
2021/11/19 00:21:06;;;;;;;29.13;18.67;;;11.50;99.90;;;;;;4893968;29;20647;-80
2021/11/19 00:23:35;;;;;;;28.40;18.93;;;11.50;99.90;;;;;;4892948;29;20706;-80
2021/11/19 00:26:03;;;;;;;33.27;19.03;;;11.50;99.90;;;;;;4893802;29;20715;-80
2021/11/19 00:28:32;;;;;;;33.67;19.03;;;11.60;99.90;;;;;;4893402;29;20261;-80
2021/11/19 00:31:03;;;;;;;26.37;18.37;;;11.60;99.90;;;;;;4893934;29;20717;-80
2021/11/19 00:33:31;;;;;;;29.83;17.70;;;11.60;99.90;;;;;;4892953;29;20242;-80
2021/11/19 00:35:59;;;;;;;31.07;18.40;;;11.60;99.90;;;;;;4893095;29;20235;-80
2021/11/19 00:38:28;;;;;;;28.77;18.77;;;11.60;99.90;;;;;;4879773;29;20250;-80
2021/11/19 00:41:01;;;;;;;27.77;18.00;;;11.60;99.90;;;;;;4876824;29;20238;-80
2021/11/19 00:43:29;;;;;;;26.17;16.77;;;11.60;99.90;;;;;;4892780;29;20242;-80
2021/11/19 00:45:59;;;;;;;24.90;16.57;;;11.60;99.90;;;;;;4903605;29;20255;-80
2021/11/19 00:48:31;;;;;;;27.13;17.00;;;11.60;99.90;;;;;;4881853;29;20266;-80
2021/11/19 00:51:11;;;;;;;26.87;15.60;;;11.60;99.90;;;;;;4902148;29;20238;-80
2021/11/19 00:53:44;;;;;;;25.30;16.80;;;11.60;99.90;;;;;;4893543;29;20234;-80
2021/11/19 00:56:13;;;;;;;22.97;16.07;;;11.60;99.90;;;;;;4892649;29;20266;-80
2021/11/19 00:58:43;;;;;;;27.77;15.23;;;11.60;99.90;;;;;;1301838;29;10022635;-80
2021/11/19 01:01:15;;;;;;;25.57;15.57;;;11.60;99.90;;;;;;4538536;29;10000568;-80
2021/11/19 01:03:45;;;;;;;26.00;14.67;;;11.60;99.90;;;;;;4892088;29;20235;-80
2021/11/19 01:06:14;;;;;;;21.87;15.70;;;11.60;99.90;;;;;;4875603;29;20250;-80
2021/11/19 01:08:50;;;;;;;20.87;14.70;;;11.70;99.90;;;;;;4892926;29;20321;-80
2021/11/19 01:11:21;;;;;;;28.87;15.93;;;11.60;99.90;;;;;;4886676;29;20253;-80
2021/11/19 01:13:52;;;;;;;22.30;14.67;;;11.70;99.90;;;;;;4878061;29;20235;-80
2021/11/19 01:16:24;;;;;;;27.90;15.13;;;11.60;99.90;;;;;;4892499;29;20317;-81
2021/11/19 01:18:56;;;;;;;23.73;16.13;;;11.60;99.90;;;;;;4892390;29;20245;-80
2021/11/19 01:21:28;;;;;;;19.37;13.60;;;11.70;99.90;;;;;;4891169;29;20258;-80
2021/11/19 01:23:58;;;;;;;19.37;13.23;;;11.60;99.90;;;;;;4895848;29;20301;-80
2021/11/19 01:26:29;;;;;;;21.33;13.20;;;11.60;99.90;;;;;;4875871;29;20727;-80
2021/11/19 01:29:00;;;;;;;20.10;13.83;;;11.60;99.90;;;;;;4891765;29;20672;-80
2021/11/19 01:31:31;;;;;;;23.77;14.27;;;11.70;99.90;;;;;;4894867;29;20247;-80
2021/11/19 01:34:08;;;;;;;26.20;14.73;;;11.60;99.90;;;;;;4875777;29;20234;-80
2021/11/19 01:36:56;;;;;;;22.93;15.77;;;11.60;99.90;;;;;;4885565;29;20242;-80
2021/11/19 01:39:43;;;;;;;22.93;14.70;;;11.70;99.90;;;;;;4891935;29;20852;-80
2021/11/19 01:42:20;;;;;;;21.90;15.27;;;11.70;99.90;;;;;;4875381;29;20266;-80
2021/11/19 01:44:58;;;;;;;25.10;16.07;;;11.70;99.90;;;;;;4890147;29;20246;-80
2021/11/19 01:47:28;;;;;;;25.23;15.50;;;11.70;99.90;;;;;;4877254;29;20246;-80
2021/11/19 01:49:58;;;;;;;25.07;16.23;;;11.70;99.90;;;;;;4886371;29;20242;-80
2021/11/19 01:52:32;;;;;;;30.43;16.03;;;11.70;99.90;;;;;;4889913;29;20256;-80
2021/11/19 01:55:05;;;;;;;22.47;15.43;;;11.70;99.90;;;;;;4882824;29;20260;-80
2021/11/19 01:57:38;;;;;;;28.47;15.83;;;11.70;99.90;;;;;;4890804;29;20831;-80
2021/11/19 02:00:13;;;;;;;23.10;15.17;;;11.70;99.90;;;;;;4874723;29;20231;-80
2021/11/19 02:02:46;;;;;;;28.93;16.67;;;11.70;99.90;;;;;;4889904;29;20239;-80
2021/11/19 02:05:25;;;;;;;27.33;16.20;;;11.70;99.90;;;;;;4892469;29;20693;-79
2021/11/19 02:07:58;;;;;;;20.87;15.53;;;11.70;99.90;;;;;;4892413;29;20243;-80
2021/11/19 02:10:53;;;;;;;25.57;15.47;;;11.70;99.90;;;;;;4889857;29;20262;-80
2021/11/19 02:13:30;;;;;;;19.87;15.90;;;11.70;99.90;;;;;;4895183;29;20245;-80
2021/11/19 02:16:01;;;;;;;24.00;15.47;;;11.70;99.90;;;;;;4874747;29;20242;-80
2021/11/19 02:18:32;;;;;;;25.03;15.50;;;11.70;99.90;;;;;;4877496;29;20791;-80
2021/11/19 02:21:12;;;;;;;24.50;14.50;;;11.80;99.90;;;;;;4890664;29;20287;-80
2021/11/19 02:23:43;;;;;;;26.00;14.63;;;11.80;99.90;;;;;;4895431;29;20417;-80
2021/11/19 02:26:14;;;;;;;23.43;15.63;;;11.80;99.90;;;;;;4895840;29;20306;-82
2021/11/19 02:28:45;;;;;;;21.77;14.87;;;11.80;99.90;;;;;;4889426;29;20294;-81
2021/11/19 02:31:16;;;;;;;30.13;15.07;;;11.70;99.90;;;;;;4874311;29;20239;-80
2021/11/19 02:33:48;;;;;;;23.27;14.23;;;11.80;99.90;;;;;;4885349;29;20236;-80
2021/11/19 02:36:19;;;;;;;28.87;14.87;;;11.70;99.90;;;;;;4876714;29;20255;-80
2021/11/19 02:38:55;;;;;;;25.23;15.10;;;11.80;99.90;;;;;;4892335;29;20321;-80
2021/11/19 02:41:27;;;;;;;20.93;14.57;;;11.80;99.90;;;;;;4877923;29;20241;-79
2021/11/19 02:43:59;;;;;;;26.30;14.03;;;11.80;99.90;;;;;;4875538;29;20234;-80
2021/11/19 02:46:31;;;;;;;23.30;13.93;;;11.80;99.90;;;;;;4889289;29;20278;-81
2021/11/19 02:49:01;;;;;;;19.77;12.87;;;11.80;99.90;;;;;;4891554;29;20258;-80
2021/11/19 02:51:34;;;;;;;20.37;13.60;;;11.80;99.90;;;;;;4876914;29;20245;-81
2021/11/19 02:54:05;;;;;;;23.00;13.57;;;11.80;99.90;;;;;;4895902;29;20747;-81
2021/11/19 02:56:35;;;;;;;21.83;12.80;;;11.80;99.90;;;;;;4849169;29;20240;-80
2021/11/19 02:59:06;;;;;;;25.23;12.97;;;11.80;99.90;;;;;;950714;29;10001970;-80
2021/11/19 03:01:37;;;;;;;18.27;12.30;;;11.80;99.90;;;;;;4888595;29;20238;-81
2021/11/19 03:04:13;;;;;;;21.30;13.23;;;11.80;99.90;;;;;;4890805;29;20623;-80
2021/11/19 03:06:45;;;;;;;20.77;12.60;;;11.90;99.90;;;;;;4889412;29;20652;-80
2021/11/19 03:09:18;;;;;;;19.70;13.00;;;11.90;99.90;;;;;;4890528;29;20780;-80
2021/11/19 03:11:46;;;;;;;19.57;11.90;;;11.90;99.90;;;;;;4884754;29;20242;-80
2021/11/19 03:14:17;;;;;;;20.70;12.77;;;11.90;99.90;;;;;;4874973;29;20274;-80
2021/11/19 03:16:46;;;;;;;24.57;12.77;;;11.90;99.90;;;;;;4882947;29;20247;-80
2021/11/19 03:19:15;;;;;;;24.03;13.13;;;11.90;99.90;;;;;;4875030;29;20251;-80
2021/11/19 03:21:45;;;;;;;19.17;11.80;;;11.90;99.90;;;;;;4892796;29;20239;-81
2021/11/19 03:24:15;;;;;;;26.57;12.33;;;11.90;99.90;;;;;;4893795;29;20250;-80
2021/11/19 03:26:44;;;;;;;20.30;11.93;;;11.90;99.90;;;;;;4876503;29;20864;-80
2021/11/19 03:29:20;;;;;;;17.93;11.67;;;11.90;99.90;;;;;;4900645;29;20707;-80
2021/11/19 03:31:50;;;;;;;22.47;12.30;;;11.90;99.90;;;;;;4900436;29;20242;-81
2021/11/19 03:34:20;;;;;;;19.80;11.73;;;11.90;99.90;;;;;;4891028;29;20329;-81
2021/11/19 03:36:52;;;;;;;21.27;11.90;;;11.90;99.90;;;;;;4892421;29;20249;-81
2021/11/19 03:39:23;;;;;;;21.07;12.20;;;11.90;99.90;;;;;;4893156;29;20254;-80
2021/11/19 03:41:53;;;;;;;20.93;11.90;;;11.90;99.90;;;;;;4896754;29;20254;-80
2021/11/19 03:44:25;;;;;;;20.33;12.20;;;11.90;99.90;;;;;;4895503;29;20718;-80
2021/11/19 03:47:06;;;;;;;21.00;11.73;;;12.00;99.90;;;;;;4892499;29;20230;-80
2021/11/19 03:49:36;;;;;;;21.33;10.87;;;11.90;99.90;;;;;;4883133;29;20239;-80
2021/11/19 03:52:09;;;;;;;18.90;10.57;;;11.90;99.90;;;;;;4893673;29;20246;-80
2021/11/19 03:54:39;;;;;;;17.67;10.77;;;11.90;99.90;;;;;;4876407;29;20707;-80
2021/11/19 03:57:10;;;;;;;19.30;10.83;;;12.00;99.90;;;;;;4890890;29;20554;-80
2021/11/19 03:59:38;;;;;;;17.73;10.30;;;12.00;99.90;;;;;;4891609;29;20293;-80
2021/11/19 04:02:08;;;;;;;19.53;10.20;;;12.00;99.90;;;;;;4876692;29;20752;-80
2021/11/19 04:04:38;;;;;;;17.57;10.50;;;12.00;99.90;;;;;;4876689;29;20498;-80
2021/11/19 04:07:11;;;;;;;19.80;10.33;;;12.00;99.90;;;;;;4891507;29;20244;-80
2021/11/19 04:09:44;;;;;;;17.67;9.83;;;12.00;99.90;;;;;;4891943;29;20241;-80
2021/11/19 04:12:13;;;;;;;22.10;10.70;;;12.00;99.90;;;;;;4891350;29;20243;-80
2021/11/19 04:14:42;;;;;;;13.33;9.37;;;12.00;99.90;;;;;;4876460;29;20452;-80
2021/11/19 04:17:10;;;;;;;13.40;10.80;;;12.00;99.90;;;;;;4875591;29;20298;-80
2021/11/19 04:19:39;;;;;;;16.87;10.70;;;12.00;99.90;;;;;;4876758;29;20267;-80
2021/11/19 04:22:13;;;;;;;16.67;10.00;;;12.00;99.90;;;;;;4891393;29;20235;-80
2021/11/19 04:24:47;;;;;;;16.80;10.03;;;12.00;99.90;;;;;;4891121;29;20314;-81
2021/11/19 04:27:16;;;;;;;16.67;10.37;;;12.00;99.90;;;;;;4897215;29;20247;-80
2021/11/19 04:30:06;;;;;;;20.63;10.27;;;11.90;99.90;;;;;;4886744;29;20296;-80
2021/11/19 04:32:34;;;;;;;17.53;10.23;;;11.90;99.90;;;;;;4875335;29;20642;-80
2021/11/19 04:35:02;;;;;;;19.93;11.17;;;11.90;99.90;;;;;;4891454;29;20364;-80
2021/11/19 04:37:33;;;;;;;19.27;10.77;;;12.00;99.90;;;;;;4874892;29;20239;-80
2021/11/19 04:40:11;;;;;;;18.17;11.27;;;11.90;99.90;;;;;;4875655;29;20242;-80
2021/11/19 04:42:39;;;;;;;19.43;11.07;;;12.00;99.90;;;;;;4890846;29;20298;-80
2021/11/19 04:45:10;;;;;;;17.40;9.97;;;11.90;99.90;;;;;;4897630;29;20757;-81
2021/11/19 04:47:41;;;;;;;20.20;10.97;;;11.90;99.90;;;;;;4897278;29;20246;-80
2021/11/19 04:50:12;;;;;;;19.30;10.33;;;11.90;99.90;;;;;;4897217;29;20701;-80
2021/11/19 04:52:42;;;;;;;17.80;11.40;;;11.80;99.90;;;;;;4901945;29;20239;-80
2021/11/19 04:55:12;;;;;;;17.90;11.10;;;11.90;99.90;;;;;;4879755;29;20243;-80
2021/11/19 04:57:54;;;;;;;18.42;11.43;;;11.80;99.90;;;;;;3880487;29;10001949;-81
2021/11/19 05:00:25;;;;;;;21.40;10.40;;;11.90;99.90;;;;;;2350918;29;10002033;-80
2021/11/19 05:03:15;;;;;;;17.27;10.50;;;11.90;99.90;;;;;;4887227;29;20499;-80
2021/11/19 05:05:45;;;;;;;18.70;9.50;;;11.80;99.90;;;;;;4873889;29;20291;-80
2021/11/19 05:08:15;;;;;;;20.17;10.03;;;11.80;99.90;;;;;;4885458;29;20242;-81
2021/11/19 05:10:45;;;;;;;22.20;10.73;;;11.80;99.90;;;;;;4886512;29;20244;-81
2021/11/19 05:13:15;;;;;;;17.13;10.10;;;11.80;99.90;;;;;;4888501;29;20718;-80
2021/11/19 05:15:52;;;;;;;21.90;9.97;;;11.80;99.90;;;;;;4875172;29;20640;-81
2021/11/19 05:18:22;;;;;;;20.07;9.33;;;11.80;99.90;;;;;;4889683;29;20290;-80
2021/11/19 05:20:52;;;;;;;17.93;9.87;;;11.80;99.90;;;;;;4874876;29;20232;-80
2021/11/19 05:23:23;;;;;;;15.73;8.83;;;11.80;99.90;;;;;;4887821;29;20251;-80
2021/11/19 05:25:53;;;;;;;19.90;10.50;;;11.80;99.90;;;;;;4884631;29;20238;-81
2021/11/19 05:28:26;;;;;;;17.77;9.53;;;11.80;99.90;;;;;;4884337;29;20611;-80
2021/11/19 05:30:59;;;;;;;15.93;9.57;;;11.80;99.90;;;;;;4875805;29;20235;-80
2021/11/19 05:33:29;;;;;;;18.87;9.50;;;11.80;99.90;;;;;;4887799;29;20250;-80
2021/11/19 05:35:58;;;;;;;18.40;9.50;;;11.80;99.90;;;;;;4889479;29;20258;-81
2021/11/19 05:38:29;;;;;;;16.57;9.60;;;11.80;99.90;;;;;;4888077;29;20723;-80
2021/11/19 05:40:58;;;;;;;16.03;9.73;;;11.80;99.90;;;;;;4891545;29;20600;-80
2021/11/19 05:43:29;;;;;;;17.03;9.80;;;11.80;99.90;;;;;;4885780;29;20240;-80
2021/11/19 05:46:12;;;;;;;17.13;9.00;;;11.80;99.90;;;;;;4885669;29;20399;-80
2021/11/19 05:48:47;;;;;;;21.20;10.00;;;11.80;99.90;;;;;;4888494;29;20320;-80
2021/11/19 05:51:17;;;;;;;18.53;9.90;;;11.80;99.90;;;;;;4874501;29;20238;-81
2021/11/19 05:53:49;;;;;;;18.27;10.00;;;11.80;99.90;;;;;;4869464;29;20238;-81
2021/11/19 05:56:22;;;;;;;26.67;10.83;;;11.80;99.90;;;;;;4890243;29;20278;-80
2021/11/19 05:58:51;;;;;;;17.50;10.53;;;11.80;99.90;;;;;;4889249;29;20404;-79
2021/11/19 06:01:33;;;;;;;20.50;11.13;;;11.90;99.90;;;;;;4874034;29;20458;-80
2021/11/19 06:04:07;;;;;;;17.57;10.50;;;11.80;99.90;;;;;;4875560;29;20243;-80
2021/11/19 06:06:43;;;;;;;16.53;11.10;;;11.80;99.90;;;;;;4889177;29;20782;-81
2021/11/19 06:09:19;;;;;;;16.77;10.87;;;11.80;99.90;;;;;;4875301;29;20258;-80
2021/11/19 06:11:50;;;;;;;22.93;11.27;;;11.80;99.90;;;;;;4882517;29;20238;-80
2021/11/19 06:14:21;;;;;;;15.33;10.47;;;11.80;99.90;;;;;;4873871;29;20271;-80
2021/11/19 06:16:52;;;;;;;18.47;11.03;;;11.80;99.90;;;;;;4882189;29;20604;-81
2021/11/19 06:19:26;;;;;;;22.07;11.67;;;11.80;99.90;;;;;;4890065;29;20259;-80
2021/11/19 06:21:58;;;;;;;22.73;10.30;;;11.90;99.90;;;;;;4880152;29;20255;-80
2021/11/19 06:24:32;;;;;;;22.17;11.97;;;11.80;99.90;;;;;;4872798;29;20243;-81
2021/11/19 06:27:00;;;;;;;20.57;11.40;;;11.80;99.90;;;;;;4889431;29;20238;-80
2021/11/19 06:29:29;;;;;;;20.47;11.53;;;11.80;99.90;;;;;;4888171;29;20271;-80
2021/11/19 06:32:02;;;;;;;19.20;11.67;;;11.80;99.90;;;;;;4873830;29;20243;-81
2021/11/19 06:34:30;;;;;;;21.10;11.20;;;11.80;99.90;;;;;;4886410;29;20239;-80
2021/11/19 06:36:59;;;;;;;22.60;11.63;;;11.80;99.90;;;;;;4896976;29;20634;-80
2021/11/19 06:39:55;;;;;;;19.57;10.83;;;11.90;99.90;;;;;;4887860;29;20592;-81
2021/11/19 06:43:00;;;;;;;22.73;10.70;;;11.80;99.90;;;;;;4889510;29;20246;-81
2021/11/19 06:45:49;;;;;;;20.13;10.40;;;11.90;99.90;;;;;;4878997;29;20237;-80
2021/11/19 06:48:27;;;;;;;18.67;9.23;;;11.80;99.90;;;;;;4874854;29;20274;-80
2021/11/19 06:51:17;;;;;;;18.50;9.43;;;11.80;99.90;;;;;;4882943;29;20248;-80
2021/11/19 06:54:00;;;;;;;20.20;9.57;;;11.90;99.90;;;;;;4889579;29;20723;-80
2021/11/19 06:56:56;;;;;;;18.92;8.42;;;11.90;99.90;;;;;;3074957;29;10002699;-80
2021/11/19 06:59:33;;;;;;;16.33;8.60;;;11.90;99.90;;;;;;3528694;29;10001562;-81
2021/11/19 07:02:03;;;;;;;16.17;8.80;;;11.90;99.90;;;;;;4890277;29;20881;-80
2021/11/19 07:04:32;;;;;;;16.73;8.90;;;11.90;99.90;;;;;;4892238;29;20256;-80
2021/11/19 07:07:01;;;;;;;15.43;8.57;;;11.90;99.90;;;;;;4889710;29;20299;-80
2021/11/19 07:09:29;;;;;;;16.40;9.23;;;11.90;99.90;;;;;;4886413;29;20672;-81
2021/11/19 07:12:00;;;;;;;18.23;8.87;;;11.90;99.90;;;;;;4885222;29;20234;-80
2021/11/19 07:14:34;;;;;;;12.67;7.70;;;11.90;99.90;;;;;;4888099;29;20718;-80
2021/11/19 07:17:05;;;;;;;18.67;8.40;;;11.90;99.90;;;;;;4891520;29;20248;-80
2021/11/19 07:19:36;;;;;;;16.20;8.03;;;11.90;99.90;;;;;;4895146;29;20303;-81
2021/11/19 07:22:05;;;;;;;20.93;8.87;;;11.90;99.90;;;;;;4873213;29;20239;-80
2021/11/19 07:24:35;;;;;;;23.00;8.20;;;11.90;99.90;;;;;;4888914;29;20239;-80
2021/11/19 07:27:12;;;;;;;14.83;7.73;;;11.90;99.90;;;;;;4872725;29;20239;-80
2021/11/19 07:29:42;;;;;;;17.77;8.60;;;11.90;99.90;;;;;;4888532;29;20246;-80
2021/11/19 07:32:28;;;;;;;16.93;8.50;;;11.90;99.90;;;;;;4888570;29;20246;-80
2021/11/19 07:35:16;;;;;;;22.10;8.60;;;11.80;99.90;;;;;;4885692;29;20254;-80
2021/11/19 07:38:04;;;;;;;22.90;8.77;;;11.90;99.90;;;;;;4885208;29;20277;-79
2021/11/19 07:40:42;;;;;;;15.17;8.10;;;11.90;99.90;;;;;;4895122;29;20514;-80
2021/11/19 07:43:17;;;;;;;16.63;8.50;;;11.80;99.90;;;;;;4871803;29;20246;-80
2021/11/19 07:46:05;;;;;;;14.47;8.40;;;11.80;99.90;;;;;;4883828;29;20246;-81
2021/11/19 07:48:47;;;;;;;19.70;9.30;;;11.90;99.90;;;;;;4896551;29;20247;-80
2021/11/19 07:51:23;;;;;;;18.97;8.90;;;11.90;99.90;;;;;;4889971;29;20239;-81
2021/11/19 07:53:53;;;;;;;17.03;8.93;;;11.90;99.90;;;;;;4889982;29;20294;-80
2021/11/19 07:56:29;;;;;;;23.30;8.93;;;11.90;99.90;;;;;;4871986;29;20690;-80
2021/11/19 07:59:01;;;;;;;17.27;9.23;;;11.90;99.90;;;;;;4892112;29;20235;-80
2021/11/19 08:01:30;;;;;;;14.70;9.50;;;11.90;99.90;;;;;;4890134;29;20250;-80
2021/11/19 08:03:58;;;;;;;18.13;9.90;;;11.90;99.90;;;;;;4871891;29;20712;-81
2021/11/19 08:06:29;;;;;;;17.37;10.10;;;11.90;99.90;;;;;;4884952;29;20250;-80
2021/11/19 08:09:24;;;;;;;16.37;9.40;;;11.90;99.90;;;;;;4894666;29;20248;-80
2021/11/19 08:12:01;;;;;;;18.40;9.00;;;12.00;99.90;;;;;;4892627;29;20428;-81
2021/11/19 08:14:32;;;;;;;21.23;10.27;;;11.90;99.90;;;;;;4899804;29;20246;-79
2021/11/19 08:17:05;;;;;;;21.27;11.00;;;12.00;99.90;;;;;;4876187;29;20644;-80
2021/11/19 08:19:44;;;;;;;22.17;10.67;;;12.00;99.90;;;;;;4891540;29;20869;-80
2021/11/19 08:22:13;;;;;;;18.30;9.70;;;11.90;99.90;;;;;;4876315;29;20719;-79
2021/11/19 08:24:42;;;;;;;17.40;9.77;;;12.00;99.90;;;;;;4894878;29;20247;-79
2021/11/19 08:27:13;;;;;;;15.47;10.03;;;12.00;99.90;;;;;;4892068;29;20312;-79
2021/11/19 08:29:45;;;;;;;15.70;10.67;;;12.00;99.90;;;;;;4888107;29;20730;-79
2021/11/19 08:32:15;;;;;;;21.93;10.90;;;12.00;99.90;;;;;;4888312;29;20775;-79
2021/11/19 08:34:45;;;;;;;18.60;10.23;;;11.90;99.90;;;;;;4889485;29;20257;-79
2021/11/19 08:37:13;;;;;;;12.83;9.97;;;11.90;99.90;;;;;;4893076;29;20643;-79
2021/11/19 08:39:41;;;;;;;16.90;9.70;;;11.90;99.90;;;;;;4892448;29;20320;-78
2021/11/19 08:42:10;;;;;;;14.00;10.40;;;12.00;99.90;;;;;;4876584;29;20245;-79
2021/11/19 08:44:38;;;;;;;20.87;11.00;;;12.00;99.90;;;;;;4892966;29;20767;-79
2021/11/19 08:47:22;;;;;;;19.67;10.87;;;12.00;99.90;;;;;;4888744;29;21105;-79
2021/11/19 08:49:52;;;;;;;15.60;11.20;;;11.90;99.90;;;;;;4891403;29;20693;-79
2021/11/19 08:52:22;;;;;;;14.37;9.83;;;12.00;99.90;;;;;;4892376;29;20247;-79
2021/11/19 08:54:51;;;;;;;15.17;10.17;;;12.00;99.90;;;;;;4886017;29;20709;-79
2021/11/19 08:57:25;;;;;;;13.57;10.07;;;12.00;99.90;;;;;;4565667;29;10002924;-79
2021/11/19 08:59:55;;;;;;;16.48;10.70;;;12.00;99.90;;;;;;1344261;29;10001995;-79
2021/11/19 09:02:26;;;;;;;18.33;11.53;;;12.00;99.90;;;;;;4891227;29;20600;-79
2021/11/19 09:05:01;;;;;;;17.30;10.30;;;12.00;99.90;;;;;;4900983;29;20699;-79
2021/11/19 09:07:32;;;;;;;14.70;10.43;;;12.10;99.90;;;;;;4892627;29;20250;-79
2021/11/19 09:10:02;;;;;;;13.57;9.57;;;12.10;99.90;;;;;;4892525;29;20293;-80
2021/11/19 09:12:31;;;;;;;16.30;10.20;;;12.10;99.90;;;;;;4892165;29;20259;-79
2021/11/19 09:15:00;;;;;;;12.97;9.90;;;12.10;99.90;;;;;;4895781;29;20716;-79
2021/11/19 09:17:59;;;;;;;15.10;10.10;;;12.20;99.90;;;;;;4891131;29;20239;-79
2021/11/19 09:20:38;;;;;;;17.60;10.23;;;12.20;99.90;;;;;;4892099;29;20331;-79
2021/11/19 09:23:09;;;;;;;17.10;10.67;;;12.20;99.90;;;;;;4891676;29;20266;-79
2021/11/19 09:25:40;;;;;;;14.50;10.50;;;12.20;99.90;;;;;;4895616;29;20236;-79
2021/11/19 09:28:11;;;;;;;16.30;9.70;;;12.20;99.90;;;;;;4889032;29;20248;-79
2021/11/19 09:30:47;;;;;;;15.70;9.87;;;12.30;99.90;;;;;;4894905;29;20243;-79
2021/11/19 09:33:20;;;;;;;18.23;9.87;;;12.20;99.90;;;;;;4894555;29;20741;-79
2021/11/19 09:35:48;;;;;;;12.87;8.97;;;12.30;99.90;;;;;;4894868;29;20499;-80
2021/11/19 09:38:20;;;;;;;14.20;9.47;;;12.40;99.90;;;;;;4886359;29;20715;-81
2021/11/19 09:40:56;;;;;;;17.57;10.27;;;12.40;99.90;;;;;;4888824;29;20658;-81
2021/11/19 09:43:36;;;;;;;16.57;9.90;;;12.40;99.90;;;;;;4893369;29;20246;-80
2021/11/19 09:46:40;;;;;;;19.33;9.60;;;12.40;99.90;;;;;;4869377;29;20281;-80
2021/11/19 09:49:31;;;;;;;11.67;8.97;;;12.40;99.90;;;;;;4848793;29;20296;-81
2021/11/19 09:52:42;;;;;;;11.70;9.03;;;12.60;99.90;;;;;;4886140;29;20252;-80
2021/11/19 09:55:44;;;;;;;14.47;8.77;;;12.60;99.90;;;;;;4879059;29;20969;-80
2021/11/19 09:58:55;;;;;;;15.73;8.70;;;12.60;99.90;;;;;;4886429;29;20702;-80
2021/11/19 10:01:54;;;;;;;13.73;8.97;;;12.60;99.90;;;;;;4889705;29;20266;-80
2021/11/19 10:04:46;;;;;;;13.97;8.37;;;12.60;99.90;;;;;;4886951;29;20289;-80
2021/11/19 10:07:26;;;;;;;14.87;8.20;;;12.60;99.90;;;;;;4882612;29;20243;-80
2021/11/19 10:10:10;;;;;;;12.43;8.43;;;12.60;99.90;;;;;;4883786;29;20324;-80
2021/11/19 10:12:50;;;;;;;14.67;8.90;;;12.60;99.90;;;;;;4885462;29;20248;-80
2021/11/19 10:15:25;;;;;;;15.43;9.33;;;12.60;99.90;;;;;;4889900;29;20247;-81
2021/11/19 10:18:02;;;;;;;14.77;8.43;;;12.60;99.90;;;;;;4883795;29;20266;-80
2021/11/19 10:20:38;;;;;;;15.30;8.40;;;12.60;99.90;;;;;;4859868;29;20790;-80
2021/11/19 10:23:09;;;;;;;16.40;8.63;;;12.60;99.90;;;;;;4884015;29;20739;-80
2021/11/19 10:25:41;;;;;;;17.30;8.70;;;12.60;99.90;;;;;;4886179;29;20327;-80
2021/11/19 10:28:28;;;;;;;14.03;8.60;;;12.60;99.90;;;;;;4883523;29;20864;-81
2021/11/19 10:30:57;;;;;;;12.53;8.63;;;12.60;99.90;;;;;;4883523;29;20255;-81
2021/11/19 10:33:29;;;;;;;14.47;8.97;;;12.60;99.90;;;;;;4885063;29;20250;-80
2021/11/19 10:36:24;;;;;;;13.17;8.53;;;12.60;99.90;;;;;;4884766;29;20350;-80
2021/11/19 10:39:31;;;;;;;16.40;8.90;;;12.60;99.90;;;;;;4881216;29;20250;-80
2021/11/19 10:42:29;;;;;;;16.70;9.30;;;12.60;99.90;;;;;;4854686;29;20341;-80
2021/11/19 10:45:25;;;;;;;15.43;9.60;;;12.60;99.90;;;;;;4886482;29;20246;-80
2021/11/19 10:48:41;;;;;;;19.70;9.33;;;12.50;99.90;;;;;;4886690;29;20249;-80
2021/11/19 10:51:43;;;;;;;16.20;9.60;;;12.60;99.90;;;;;;4884423;29;20260;-79
2021/11/19 10:54:53;;;;;;;21.57;10.40;;;12.60;99.90;;;;;;4876923;29;20250;-80
2021/11/19 10:57:46;;;;;;;21.03;10.67;;;12.60;99.90;;;;;;4884894;29;20334;-80
2021/11/19 11:00:25;;;;;;;16.90;9.50;;;12.70;99.90;;;;;;4885498;29;20311;-80
2021/11/19 11:02:55;;;;;;;21.53;10.83;;;12.70;99.90;;;;;;4882968;29;20251;-80
2021/11/19 11:05:32;;;;;;;20.30;9.83;;;12.70;99.90;;;;;;4886361;29;20255;-81
2021/11/19 11:08:06;;;;;;;16.87;10.03;;;12.70;99.90;;;;;;4845388;29;20282;-80
2021/11/19 11:10:39;;;;;;;15.10;10.07;;;12.80;99.90;;;;;;950896;29;10002000;-80
2021/11/19 11:13:32;;;;;;;15.47;9.53;;;12.80;99.90;;;;;;4882786;29;20248;-80
2021/11/19 11:16:06;;;;;;;18.43;9.50;;;12.80;99.90;;;;;;4893699;29;20300;-80
2021/11/19 11:18:36;;;;;;;18.27;9.67;;;12.70;99.90;;;;;;4886900;29;21097;-80
2021/11/19 11:21:25;;;;;;;18.80;8.77;;;12.70;99.90;;;;;;4884131;29;20339;-80
2021/11/19 11:24:18;;;;;;;16.80;8.97;;;12.80;99.90;;;;;;4879085;29;20243;-81
2021/11/19 11:26:50;;;;;;;19.40;9.00;;;12.70;99.90;;;;;;4877152;29;20267;-80
2021/11/19 11:29:45;;;;;;;13.23;7.83;;;12.80;99.90;;;;;;4886742;29;20255;-80
2021/11/19 11:32:37;;;;;;;15.17;8.30;;;12.80;99.90;;;;;;4887228;29;20311;-80
2021/11/19 11:35:14;;;;;;;16.60;7.67;;;12.80;99.90;;;;;;4880340;29;20270;-80
2021/11/19 11:37:56;;;;;;;11.03;7.57;;;12.80;99.90;;;;;;4885206;29;20251;-80
2021/11/19 11:40:33;;;;;;;16.30;7.80;;;12.80;99.90;;;;;;4887462;29;20784;-80
2021/11/19 11:43:32;;;;;;;15.53;7.57;;;12.70;99.90;;;;;;4894552;29;20322;-80
2021/11/19 11:46:14;;;;;;;14.23;7.77;;;12.60;99.90;;;;;;4888426;29;20644;-80
2021/11/19 11:48:50;;;;;;;21.43;9.07;;;12.60;99.90;;;;;;4895017;29;20327;-81
2021/11/19 11:51:23;;;;;;;17.47;8.00;;;12.50;99.90;;;;;;4892871;29;20390;-80
2021/11/19 11:54:02;;;;;;;19.20;7.80;;;12.50;99.90;;;;;;4895530;29;20243;-80
2021/11/19 11:56:37;;;;;;;18.80;7.93;;;12.40;99.90;;;;;;4885926;29;20641;-80
2021/11/19 11:59:10;;;;;;;18.87;7.77;;;12.40;99.90;;;;;;4886750;29;20299;-80
2021/11/19 12:01:48;;;;;;;16.50;7.40;;;12.40;99.90;;;;;;4898754;29;20235;-80
2021/11/19 12:04:23;;;;;;;17.33;7.93;;;12.40;99.90;;;;;;4898039;29;20331;-80
2021/11/19 12:06:58;;;;;;;12.63;7.40;;;12.40;99.90;;;;;;4892421;29;20761;-80
2021/11/19 12:09:33;;;;;;;18.23;8.50;;;12.40;99.90;;;;;;4888534;29;20273;-79
2021/11/19 12:12:28;;;;;;;17.33;7.67;;;12.40;99.90;;;;;;4896220;29;20235;-79
2021/11/19 12:15:13;;;;;;;11.63;7.47;;;12.40;99.90;;;;;;4889584;29;20238;-80
2021/11/19 12:17:50;;;;;;;17.23;6.67;;;12.40;99.90;;;;;;4886217;29;20350;-80
2021/11/19 12:20:26;;;;;;;18.60;6.77;;;12.50;99.90;;;;;;4894379;29;20573;-80
2021/11/19 12:23:04;;;;;;;20.00;6.33;;;12.50;99.90;;;;;;4893344;29;20247;-80
2021/11/19 12:25:59;;;;;;;14.30;6.10;;;12.60;99.90;;;;;;4888966;29;20715;-80
2021/11/19 12:28:35;;;;;;;14.13;5.60;;;12.60;99.90;;;;;;4894374;29;20330;-80
2021/11/19 12:31:14;;;;;;;15.13;5.13;;;12.50;99.90;;;;;;4893430;29;20303;-80
2021/11/19 12:33:50;;;;;;;13.73;5.00;;;12.50;99.90;;;;;;4891715;29;20262;-80
2021/11/19 12:36:25;;;;;;;14.83;4.57;;;12.70;99.90;;;;;;4893250;29;20257;-80
2021/11/19 12:38:56;;;;;;;15.70;4.93;;;12.70;99.90;;;;;;4890716;29;20717;-80
2021/11/19 12:41:30;;;;;;;17.73;4.90;;;12.70;99.90;;;;;;4888152;29;20251;-80
2021/11/19 12:44:16;;;;;;;15.70;4.40;;;12.70;99.90;;;;;;4893661;29;20242;-80
2021/11/19 12:47:14;;;;;;;13.50;3.83;;;12.70;99.90;;;;;;4892746;29;20244;-81
2021/11/19 12:50:07;;;;;;;14.97;4.13;;;12.70;99.90;;;;;;4894081;29;20721;-79
2021/11/19 12:52:40;;;;;;;15.03;4.23;;;12.70;99.90;;;;;;4893386;29;20700;-80
2021/11/19 12:55:27;;;;;;;13.70;3.53;;;12.70;99.90;;;;;;4893783;29;20251;-79
2021/11/19 12:58:15;;;;;;;14.07;4.00;;;12.70;99.90;;;;;;4897944;29;20242;-79
2021/11/19 13:01:05;;;;;;;10.80;3.80;;;12.70;99.90;;;;;;4892891;29;20248;-80
2021/11/19 13:03:59;;;;;;;14.63;3.40;;;12.70;99.90;;;;;;4872149;29;20647;-80
2021/11/19 13:06:42;;;;;;;15.97;4.03;;;12.70;99.90;;;;;;4873778;29;20276;-80
2021/11/19 13:09:42;;;;;;;13.13;3.33;;;12.70;99.90;;;;;;4875481;29;20251;-80
2021/11/19 13:12:42;;;;;;;11.00;3.30;;;12.70;99.90;;;;;;4882103;29;20248;-80
2021/11/19 13:15:40;;;;;;;13.82;3.65;;;12.70;99.90;;;;;;1977503;29;10023842;-80